Time;durP1;ratioP1;P1;durP2;ratioP2;P2;SDS_P1;SDS_P2;PMS_P1;PMS_P2;Temp;Humidity;BMP_temperature;BMP_pressure;BME280_temperature;BME280_humidity;BME280_pressure;Samples;Min_cycle;Max_cycle;Signal;HPM_P1;HPM_P2
2022/12/21 00:01:20;;;;;;;24.88;5.07;;;6.10;99.90;;;;;;5113459;27;20513;-61
2022/12/21 00:03:50;;;;;;;26.30;5.30;;;6.10;99.90;;;;;;5088915;28;20411;-61
2022/12/21 00:06:16;;;;;;;20.77;3.45;;;6.10;99.90;;;;;;5108717;27;20475;-61
2022/12/21 00:08:45;;;;;;;20.48;3.28;;;6.10;99.90;;;;;;5128913;27;20058;-61
2022/12/21 00:11:13;;;;;;;23.73;4.22;;;6.10;99.90;;;;;;5106594;28;20071;-61
2022/12/21 00:13:40;;;;;;;22.80;3.85;;;6.10;99.90;;;;;;5093862;28;20126;-61
2022/12/21 00:16:11;;;;;;;16.73;3.88;;;6.10;99.90;;;;;;5113018;28;20047;-61
2022/12/21 00:18:38;;;;;;;26.77;6.60;;;6.10;99.90;;;;;;5104725;28;20114;-61
2022/12/21 00:21:16;;;;;;;16.25;3.55;;;6.10;99.90;;;;;;5128020;28;20047;-61
2022/12/21 00:23:45;;;;;;;18.83;4.10;;;6.10;99.90;;;;;;5115190;28;20058;-60
2022/12/21 00:26:12;;;;;;;30.85;4.53;;;6.20;99.90;;;;;;5089883;28;20051;-60
2022/12/21 00:28:39;;;;;;;20.02;3.78;;;6.20;99.90;;;;;;5099032;28;20078;-60
2022/12/21 00:31:10;;;;;;;26.20;3.75;;;6.20;99.90;;;;;;5112466;28;20063;-61
2022/12/21 00:33:37;;;;;;;25.13;4.50;;;6.30;99.90;;;;;;5118577;28;20052;-61
2022/12/21 00:36:05;;;;;;;19.98;3.28;;;6.30;99.90;;;;;;5110640;28;20113;-61
2022/12/21 00:38:32;;;;;;;22.95;3.80;;;6.40;99.90;;;;;;5084626;28;20070;-61
2022/12/21 00:41:02;;;;;;;19.70;3.63;;;6.40;99.90;;;;;;5110906;28;20498;-61
2022/12/21 00:43:29;;;;;;;30.52;5.40;;;6.50;99.90;;;;;;5101126;28;20045;-64
2022/12/21 00:45:57;;;;;;;23.83;3.75;;;6.50;99.90;;;;;;5132638;27;20051;-61
2022/12/21 00:48:27;;;;;;;17.02;3.92;;;6.50;99.90;;;;;;5125912;27;20130;-61
2022/12/21 00:51:05;;;;;;;22.40;4.45;;;6.50;99.90;;;;;;5113890;28;20043;-61
2022/12/21 00:53:32;;;;;;;26.40;4.55;;;6.40;99.90;;;;;;5103987;27;20045;-61
2022/12/21 00:56:00;;;;;;;21.02;3.88;;;6.50;99.90;;;;;;5134618;27;20089;-61
2022/12/21 00:58:27;;;;;;;13.80;3.65;;;6.40;99.90;;;;;;5127559;27;20735;-61
2022/12/21 01:00:55;;;;;;;24.17;6.15;;;6.40;99.90;;;;;;5096423;28;20073;-61
2022/12/21 01:03:22;;;;;;;26.00;3.30;;;6.40;99.90;;;;;;5077735;27;20055;-61
2022/12/21 01:05:50;;;;;;;16.25;3.78;;;6.50;99.90;;;;;;5134504;27;20102;-61
2022/12/21 01:08:17;;;;;;;13.70;3.05;;;6.50;99.90;;;;;;5129699;27;20134;-61
2022/12/21 01:10:44;;;;;;;29.55;3.33;;;6.60;99.90;;;;;;5115029;27;20052;-61
2022/12/21 01:13:11;;;;;;;21.25;4.20;;;6.60;99.90;;;;;;5117911;27;20082;-60
2022/12/21 01:15:42;;;;;;;17.67;4.03;;;6.70;99.90;;;;;;5130848;27;20086;-61
2022/12/21 01:18:09;;;;;;;22.27;4.15;;;6.80;99.90;;;;;;5129983;27;20405;-61
2022/12/21 01:20:40;;;;;;;25.88;3.50;;;6.80;99.90;;;;;;5100995;28;20126;-62
2022/12/21 01:23:07;;;;;;;22.98;3.58;;;6.90;99.90;;;;;;5101010;27;20451;-61
2022/12/21 01:25:34;;;;;;;27.25;4.15;;;6.90;99.90;;;;;;5082244;28;20455;-59
2022/12/21 01:28:00;;;;;;;16.60;3.50;;;6.90;99.90;;;;;;5103811;27;20549;-61
2022/12/21 01:30:27;;;;;;;17.52;3.70;;;6.90;99.90;;;;;;5106137;27;20122;-61
2022/12/21 01:32:54;;;;;;;17.55;2.67;;;6.90;99.90;;;;;;5113615;27;20517;-61
2022/12/21 01:35:21;;;;;;;18.52;4.10;;;6.90;99.90;;;;;;5122151;27;20096;-61
2022/12/21 01:37:48;;;;;;;14.75;3.35;;;7.00;99.90;;;;;;5133338;27;20047;-61
2022/12/21 01:40:15;;;;;;;29.48;5.65;;;7.00;99.90;;;;;;5122240;27;20489;-61
2022/12/21 01:42:41;;;;;;;17.27;3.25;;;7.00;99.90;;;;;;5133385;27;20283;-61
2022/12/21 01:45:31;;;;;;;25.02;3.30;;;7.10;99.90;;;;;;5126152;27;20089;-61
2022/12/21 01:48:03;;;;;;;22.35;3.08;;;7.10;99.90;;;;;;5113642;27;20051;-61
2022/12/21 01:50:46;;;;;;;18.73;2.70;;;7.20;99.90;;;;;;5103407;28;20046;-61
2022/12/21 01:53:16;;;;;;;21.08;4.57;;;7.20;99.90;;;;;;5095174;27;20055;-60
2022/12/21 01:55:43;;;;;;;22.08;4.28;;;7.30;99.90;;;;;;5106101;28;20058;-60
2022/12/21 01:58:10;;;;;;;24.85;3.35;;;7.30;99.90;;;;;;5111567;28;20047;-61
2022/12/21 02:00:36;;;;;;;26.00;3.40;;;7.30;99.90;;;;;;4748004;27;10000372;-60
2022/12/21 02:03:04;;;;;;;17.50;3.53;;;7.40;99.90;;;;;;5114821;27;20425;-61
2022/12/21 02:05:42;;;;;;;20.30;3.55;;;7.40;99.90;;;;;;5109410;27;20043;-60
2022/12/21 02:08:08;;;;;;;18.48;3.38;;;7.50;99.90;;;;;;5078624;28;20055;-60
2022/12/21 02:10:35;;;;;;;17.83;3.60;;;7.50;99.90;;;;;;5117026;27;20062;-60
2022/12/21 02:13:07;;;;;;;22.02;3.38;;;7.50;99.90;;;;;;5114806;27;20138;-60
2022/12/21 02:15:52;;;;;;;17.38;2.88;;;7.50;99.90;;;;;;5121530;27;20050;-61
2022/12/21 02:18:53;;;;;;;23.38;5.32;;;7.50;99.90;;;;;;5074374;28;20051;-60
2022/12/21 02:21:27;;;;;;;29.55;3.58;;;7.60;99.90;;;;;;5116923;27;20434;-60
2022/12/21 02:24:09;;;;;;;;;;;7.60;99.90;;;;;;5098589;27;20043;-60
2022/12/21 02:27:30;;;;;;;22.60;3.17;;;7.70;99.90;;;;;;5107729;28;19924;-60
2022/12/21 02:30:17;;;;;;;21.20;3.25;;;7.70;99.90;;;;;;5016515;28;20046;-60
2022/12/21 02:33:09;;;;;;;20.33;3.58;;;7.80;99.90;;;;;;5008390;28;20535;-60
2022/12/21 02:35:56;;;;;;;26.63;2.83;;;7.80;99.90;;;;;;5090702;27;20085;-60
2022/12/21 02:38:34;;;;;;;21.45;4.00;;;7.80;99.90;;;;;;5116425;27;20127;-61
2022/12/21 02:41:27;;;;;;;21.48;3.13;;;7.80;99.90;;;;;;5098183;28;20052;-60
2022/12/21 02:44:24;;;;;;;30.58;4.38;;;7.90;99.90;;;;;;5113327;27;20078;-60
2022/12/21 02:47:32;;;;;;;12.77;2.53;;;7.90;99.90;;;;;;5126425;27;20051;-60
2022/12/21 02:50:11;;;;;;;14.48;2.30;;;7.90;99.90;;;;;;5009307;28;20045;-61
2022/12/21 02:53:07;;;;;;;12.52;2.83;;;7.90;99.90;;;;;;5095783;27;20046;-61
2022/12/21 02:55:34;;;;;;;18.23;3.50;;;7.90;99.90;;;;;;5081188;27;20039;-59
2022/12/21 02:58:21;;;;;;;15.80;2.78;;;7.90;99.90;;;;;;5122796;27;20138;-60
2022/12/21 03:00:55;;;;;;;16.33;2.13;;;7.80;99.90;;;;;;5094795;27;20075;-60
2022/12/21 03:03:48;;;;;;;14.35;2.15;;;7.80;99.90;;;;;;5091179;27;20043;-61
2022/12/21 03:06:35;;;;;;;16.27;3.03;;;7.70;99.90;;;;;;5127742;27;20044;-60
2022/12/21 03:09:25;;;;;;;9.73;2.17;;;7.80;99.90;;;;;;5099357;28;20058;-61
2022/12/21 03:11:54;;;;;;;9.80;2.05;;;7.70;99.90;;;;;;5096757;28;20134;-60
2022/12/21 03:14:41;;;;;;;12.48;2.20;;;7.70;99.90;;;;;;5125426;27;20051;-61
2022/12/21 03:17:30;;;;;;;15.85;2.75;;;7.70;99.90;;;;;;5107633;28;20039;-60
2022/12/21 03:20:17;;;;;;;21.15;2.67;;;7.70;99.90;;;;;;5111706;27;20130;-60
2022/12/21 03:23:08;;;;;;;11.13;2.13;;;7.70;99.90;;;;;;5109215;27;20055;-61
2022/12/21 03:25:55;;;;;;;13.18;3.38;;;7.70;99.90;;;;;;5113532;27;20551;-60
2022/12/21 03:28:25;;;;;;;14.30;2.50;;;7.70;99.90;;;;;;5109740;27;20047;-61
2022/12/21 03:30:53;;;;;;;22.27;3.00;;;7.70;99.90;;;;;;5076568;28;20535;-61
2022/12/21 03:33:22;;;;;;;13.68;2.78;;;7.80;99.90;;;;;;5097298;28;20044;-62
2022/12/21 03:35:52;;;;;;;19.50;3.00;;;7.70;99.90;;;;;;5096648;27;20138;-61
2022/12/21 03:38:24;;;;;;;19.75;3.00;;;7.70;99.90;;;;;;5109179;27;20057;-61
2022/12/21 03:40:53;;;;;;;12.95;2.75;;;7.70;99.90;;;;;;5094201;28;20047;-62
2022/12/21 03:43:28;;;;;;;15.50;2.28;;;7.70;99.90;;;;;;5085742;27;20051;-61
2022/12/21 03:46:00;;;;;;;13.50;2.50;;;7.70;99.90;;;;;;5094694;28;20146;-60
2022/12/21 03:48:57;;;;;;;18.80;2.95;;;7.70;99.90;;;;;;5086524;27;20134;-61
2022/12/21 03:51:43;;;;;;;13.80;2.50;;;7.70;99.90;;;;;;5058514;28;20047;-61
2022/12/21 03:54:20;;;;;;;13.95;2.53;;;7.70;99.90;;;;;;5078103;27;20076;-61
2022/12/21 03:56:47;;;;;;;9.77;1.92;;;7.70;99.90;;;;;;5114228;27;20043;-61
2022/12/21 03:59:13;;;;;;;19.98;2.63;;;7.70;99.90;;;;;;5099192;28;20047;-62
2022/12/21 04:01:55;;;;;;;16.48;2.33;;;7.70;99.90;;;;;;5076163;28;20044;-61
2022/12/21 04:04:35;;;;;;;18.65;3.13;;;7.70;99.90;;;;;;5112656;27;20043;-61
2022/12/21 04:07:04;;;;;;;17.42;5.60;;;7.70;99.90;;;;;;5072231;28;20056;-61
2022/12/21 04:09:31;;;;;;;12.73;2.08;;;7.70;99.90;;;;;;5085194;28;20070;-61
2022/12/21 04:14:50;;;;;;;12.38;2.10;;;7.70;99.90;;;;;;5115690;28;20058;-61
2022/12/21 04:17:16;;;;;;;18.02;2.25;;;7.70;99.90;;;;;;5113141;28;20043;-60
2022/12/21 04:19:58;;;;;;;15.23;3.70;;;7.70;99.90;;;;;;5119812;28;20086;-60
2022/12/21 04:28:10;;;;;;;7.25;1.77;;;7.70;99.90;;;;;;5094982;28;20047;-60
2022/12/21 04:30:57;;;;;;;9.07;2.20;;;7.80;99.90;;;;;;5118912;28;20044;-60
2022/12/21 04:33:25;;;;;;;25.98;4.40;;;7.70;99.90;;;;;;5110954;28;20118;-60
2022/12/21 04:38:39;;;;;;;21.30;3.50;;;7.70;99.90;;;;;;5115004;28;20047;-60
2022/12/21 04:41:05;;;;;;;18.98;2.45;;;7.80;99.90;;;;;;5104292;28;20044;-60
2022/12/21 04:43:35;;;;;;;17.92;2.47;;;7.80;99.90;;;;;;5110078;28;20513;-60
2022/12/21 04:46:07;;;;;;;10.45;2.08;;;7.80;99.90;;;;;;5123423;28;20069;-60
2022/12/21 04:48:34;;;;;;;14.98;2.67;;;7.90;99.90;;;;;;5092434;28;20044;-60
2022/12/21 04:51:14;;;;;;;19.00;3.47;;;7.80;99.90;;;;;;5116396;28;20127;-60
2022/12/21 04:53:41;;;;;;;12.48;2.20;;;7.80;99.90;;;;;;5112449;28;20126;-60
2022/12/21 04:56:08;;;;;;;16.30;2.38;;;7.80;99.90;;;;;;5128860;28;20059;-60
2022/12/21 04:58:35;;;;;;;12.63;4.18;;;7.80;99.90;;;;;;5130865;28;20057;-60
2022/12/21 05:01:06;;;;;;;13.45;1.80;;;7.70;99.90;;;;;;5119297;28;20044;-60
2022/12/21 05:03:33;;;;;;;10.85;1.77;;;7.70;99.90;;;;;;5070692;28;20040;-61
2022/12/21 05:06:00;;;;;;;19.40;2.63;;;7.70;99.90;;;;;;5107564;28;20051;-61
2022/12/21 05:08:28;;;;;;;9.65;2.17;;;7.70;99.90;;;;;;5108966;28;20063;-60
2022/12/21 05:10:54;;;;;;;16.25;2.22;;;7.70;99.90;;;;;;5104677;28;20134;-60
2022/12/21 05:13:21;;;;;;;15.70;2.67;;;7.70;99.90;;;;;;5125094;28;20130;-60
2022/12/21 05:15:48;;;;;;;8.82;1.98;;;7.70;99.90;;;;;;5125796;28;20139;-61
2022/12/21 05:18:14;;;;;;;11.95;2.47;;;7.70;99.90;;;;;;5117653;28;20043;-60
2022/12/21 05:20:42;;;;;;;6.88;1.80;;;7.70;99.90;;;;;;5093177;28;20123;-61
2022/12/21 05:23:17;;;;;;;9.77;1.90;;;7.70;99.90;;;;;;5102527;28;20039;-60
2022/12/21 05:25:44;;;;;;;15.30;1.85;;;7.70;99.90;;;;;;5114043;28;20674;-60
2022/12/21 05:28:10;;;;;;;14.85;2.00;;;7.50;99.90;;;;;;5107097;28;20535;-60
2022/12/21 05:30:37;;;;;;;17.15;2.00;;;7.60;99.90;;;;;;5110440;28;20058;-60
2022/12/21 05:33:04;;;;;;;10.00;2.28;;;7.60;99.90;;;;;;5106065;28;20075;-60
2022/12/21 05:35:31;;;;;;;6.32;1.90;;;7.60;99.90;;;;;;5095310;28;20054;-60
2022/12/21 05:37:58;;;;;;;19.10;2.80;;;7.60;99.90;;;;;;5125710;27;20042;-60
2022/12/21 05:40:24;;;;;;;15.15;1.98;;;7.60;99.90;;;;;;5113864;28;20043;-61
2022/12/21 05:43:03;;;;;;;11.35;2.10;;;7.70;99.90;;;;;;5120441;27;20043;-61
2022/12/21 05:45:30;;;;;;;14.23;2.13;;;7.70;99.90;;;;;;5133626;27;20043;-61
2022/12/21 05:47:57;;;;;;;16.73;4.97;;;7.70;99.90;;;;;;5109417;27;20047;-62
2022/12/21 05:50:24;;;;;;;12.10;2.28;;;7.70;99.90;;;;;;5113135;28;20383;-62
2022/12/21 05:52:51;;;;;;;9.10;1.92;;;7.70;99.90;;;;;;5128011;27;20069;-62
2022/12/21 05:55:17;;;;;;;23.20;3.58;;;7.70;99.90;;;;;;5113907;27;20051;-61
2022/12/21 05:57:44;;;;;;;9.48;1.50;;;7.60;99.90;;;;;;5116881;27;20047;-61
2022/12/21 06:00:11;;;;;;;9.38;1.98;;;7.50;99.90;;;;;;5130914;27;20047;-61
2022/12/21 06:02:41;;;;;;;8.00;2.13;;;7.50;99.90;;;;;;5111589;27;20043;-61
2022/12/21 06:05:08;;;;;;;15.75;3.42;;;7.40;99.90;;;;;;5118066;27;20059;-61
2022/12/21 06:07:35;;;;;;;7.72;1.85;;;7.40;99.90;;;;;;5118147;27;20120;-60
2022/12/21 06:10:02;;;;;;;13.10;2.20;;;7.40;99.90;;;;;;5128800;27;20078;-60
2022/12/21 06:12:29;;;;;;;15.57;2.50;;;7.40;99.90;;;;;;5131526;27;20060;-60
2022/12/21 06:14:56;;;;;;;15.90;2.35;;;7.40;99.90;;;;;;5106511;27;20054;-61
2022/12/21 06:17:23;;;;;;;12.20;2.63;;;7.50;99.90;;;;;;5097991;27;20413;-61
2022/12/21 06:19:49;;;;;;;41.92;6.82;;;7.60;99.90;;;;;;5106549;28;20087;-60
2022/12/21 06:22:16;;;;;;;19.30;3.40;;;7.60;99.90;;;;;;5095680;27;20130;-61
2022/12/21 06:24:43;;;;;;;10.07;1.83;;;7.70;99.90;;;;;;5121510;27;20092;-62
2022/12/21 06:27:10;;;;;;;10.23;1.75;;;7.70;99.90;;;;;;5112719;27;20053;-60
2022/12/21 06:29:37;;;;;;;15.48;2.38;;;7.70;99.90;;;;;;5101820;27;20451;-60
2022/12/21 06:32:03;;;;;;;29.17;2.63;;;7.80;99.90;;;;;;5133465;27;20049;-61
2022/12/21 06:34:30;;;;;;;8.80;1.90;;;7.80;99.90;;;;;;5127455;27;20069;-60
2022/12/21 06:36:57;;;;;;;15.38;1.80;;;7.80;99.90;;;;;;5108702;28;20144;-62
2022/12/21 06:39:24;;;;;;;12.45;1.67;;;7.80;99.90;;;;;;5110817;27;20071;-61
2022/12/21 06:41:50;;;;;;;15.73;2.67;;;7.80;99.90;;;;;;5094184;28;20043;-62
2022/12/21 06:44:17;;;;;;;18.13;4.03;;;7.80;99.90;;;;;;5119753;27;20035;-62
2022/12/21 06:46:44;;;;;;;16.08;2.55;;;7.80;99.90;;;;;;5115043;27;20088;-60
2022/12/21 06:49:12;;;;;;;25.08;4.43;;;7.80;99.90;;;;;;5100529;27;20099;-61
2022/12/21 06:51:38;;;;;;;15.00;3.65;;;7.80;99.90;;;;;;5099504;28;20067;-62
2022/12/21 06:54:06;;;;;;;14.90;2.63;;;7.90;99.90;;;;;;5116671;27;20139;-62
2022/12/21 06:56:33;;;;;;;11.73;3.45;;;7.90;99.90;;;;;;5119307;27;20122;-61
2022/12/21 06:59:00;;;;;;;21.52;3.95;;;8.00;99.90;;;;;;4761047;27;10000688;-62
2022/12/21 07:01:29;;;;;;;23.75;2.60;;;8.00;99.90;;;;;;5119765;27;20047;-61
2022/12/21 07:03:56;;;;;;;11.38;3.25;;;8.00;99.90;;;;;;5109498;27;20043;-60
2022/12/21 07:06:24;;;;;;;17.83;2.15;;;8.00;99.90;;;;;;5100494;27;20122;-61
2022/12/21 07:08:51;;;;;;;18.40;2.92;;;8.00;99.90;;;;;;5110354;27;20047;-60
2022/12/21 07:11:19;;;;;;;12.23;1.98;;;8.10;99.90;;;;;;5099939;27;20126;-62
2022/12/21 07:13:47;;;;;;;12.52;2.30;;;8.00;99.90;;;;;;5111134;27;20119;-61
2022/12/21 07:16:14;;;;;;;15.18;3.63;;;8.10;99.90;;;;;;5116876;27;20051;-62
2022/12/21 07:18:42;;;;;;;15.57;2.65;;;8.10;99.90;;;;;;5077748;27;20042;-61
2022/12/21 07:21:13;;;;;;;12.10;2.70;;;8.10;99.90;;;;;;5112975;27;20043;-61
2022/12/21 07:23:40;;;;;;;21.23;2.20;;;8.20;99.90;;;;;;5110384;27;20057;-61
2022/12/21 07:26:18;;;;;;;19.08;4.50;;;8.20;99.90;;;;;;5097520;27;20058;-60
2022/12/21 07:28:45;;;;;;;19.55;2.15;;;8.30;99.90;;;;;;5129262;27;20549;-60
2022/12/21 07:31:15;;;;;;;16.65;3.10;;;8.30;99.90;;;;;;5123827;27;20039;-61
2022/12/21 07:33:42;;;;;;;19.05;2.55;;;8.40;99.90;;;;;;5069476;28;20054;-61
2022/12/21 07:36:09;;;;;;;19.65;2.35;;;8.40;99.90;;;;;;5097860;27;20058;-61
2022/12/21 07:38:36;;;;;;;12.13;2.47;;;8.40;99.90;;;;;;5092563;28;20051;-61
2022/12/21 07:41:05;;;;;;;12.98;3.78;;;8.30;99.90;;;;;;5117472;27;20059;-60
2022/12/21 07:43:31;;;;;;;18.15;2.75;;;8.40;99.90;;;;;;5112975;27;20199;-61
2022/12/21 07:45:59;;;;;;;14.18;2.70;;;8.40;99.90;;;;;;5112568;27;20093;-61
2022/12/21 07:48:26;;;;;;;21.95;3.42;;;8.40;99.90;;;;;;5111404;28;20199;-62
2022/12/21 07:50:56;;;;;;;18.25;2.60;;;8.40;99.90;;;;;;5105455;27;20056;-62
2022/12/21 07:53:23;;;;;;;20.73;3.33;;;8.40;99.90;;;;;;5103198;27;20081;-61
2022/12/21 07:56:02;;;;;;;19.13;4.93;;;8.40;99.90;;;;;;5081210;28;20548;-63
2022/12/21 07:58:29;;;;;;;19.45;3.63;;;8.50;99.90;;;;;;5084843;28;20084;-63
2022/12/21 08:01:01;;;;;;;11.52;2.13;;;8.50;99.90;;;;;;5102863;28;20054;-61
2022/12/21 08:03:32;;;;;;;11.02;2.55;;;8.50;99.90;;;;;;5105088;27;20050;-61
2022/12/21 08:05:59;;;;;;;15.52;3.08;;;8.50;99.90;;;;;;5091764;28;20039;-61
2022/12/21 08:08:26;;;;;;;23.88;3.05;;;8.60;99.90;;;;;;5121175;27;20055;-61
2022/12/21 08:10:53;;;;;;;11.93;2.60;;;8.70;99.90;;;;;;5130266;27;20055;-60
2022/12/21 08:13:21;;;;;;;19.00;3.38;;;8.70;99.90;;;;;;5126560;27;20855;-60
2022/12/21 08:15:47;;;;;;;17.17;4.90;;;8.70;99.90;;;;;;5094312;28;20083;-61
2022/12/21 08:18:14;;;;;;;20.05;7.18;;;8.70;99.90;;;;;;5115833;28;20079;-62
2022/12/21 08:20:44;;;;;;;13.60;3.03;;;8.70;99.90;;;;;;5092827;28;20479;-62
2022/12/21 08:23:11;;;;;;;14.73;1.88;;;8.70;99.90;;;;;;5064949;28;20131;-62
2022/12/21 08:25:46;;;;;;;19.27;3.75;;;8.80;99.90;;;;;;5094372;28;20055;-63
2022/12/21 08:28:12;;;;;;;16.55;2.80;;;8.80;99.90;;;;;;5119899;28;20059;-62
2022/12/21 08:30:39;;;;;;;12.57;2.15;;;8.80;99.90;;;;;;5104803;28;20056;-62
2022/12/21 08:33:06;;;;;;;25.33;3.70;;;8.80;99.90;;;;;;5109258;28;20058;-60
2022/12/21 08:35:33;;;;;;;11.15;2.28;;;8.80;99.90;;;;;;5105357;28;20085;-61
2022/12/21 08:38:00;;;;;;;15.38;2.35;;;8.80;99.90;;;;;;5103070;28;20481;-61
2022/12/21 08:40:27;;;;;;;14.25;3.13;;;8.90;99.90;;;;;;5090949;28;20446;-60
2022/12/21 08:42:53;;;;;;;19.15;2.90;;;8.90;99.90;;;;;;5091020;28;20083;-61
2022/12/21 08:45:21;;;;;;;13.40;2.58;;;8.90;99.90;;;;;;5120440;28;20047;-61
2022/12/21 08:47:48;;;;;;;15.93;2.85;;;8.90;99.90;;;;;;5122043;28;20048;-60
2022/12/21 08:50:15;;;;;;;20.02;2.63;;;9.00;99.90;;;;;;5118467;28;20509;-60
2022/12/21 08:52:42;;;;;;;11.15;1.70;;;9.00;99.90;;;;;;5120589;28;20341;-60
2022/12/21 08:55:09;;;;;;;15.82;3.03;;;9.00;99.90;;;;;;5096777;28;20047;-61
2022/12/21 08:57:35;;;;;;;22.73;4.28;;;9.00;99.90;;;;;;5088047;28;20383;-61
2022/12/21 09:00:09;;;;;;;18.02;3.58;;;9.00;99.90;;;;;;5111628;28;20059;-61
2022/12/21 09:02:36;;;;;;;14.35;4.00;;;9.00;99.90;;;;;;5122424;28;20092;-60
2022/12/21 09:05:04;;;;;;;12.40;2.00;;;9.00;99.90;;;;;;5111332;28;20048;-61
2022/12/21 09:07:31;;;;;;;10.25;2.33;;;9.10;99.90;;;;;;5067149;27;20098;-61
2022/12/21 09:09:58;;;;;;;18.80;2.75;;;9.10;99.90;;;;;;5113179;27;20043;-62
2022/12/21 09:12:26;;;;;;;17.50;3.35;;;9.10;99.90;;;;;;5109340;27;20061;-60
2022/12/21 09:14:53;;;;;;;20.80;2.78;;;9.10;99.90;;;;;;5103893;27;20047;-59
2022/12/21 09:17:20;;;;;;;14.55;3.08;;;9.10;99.90;;;;;;5108365;28;20048;-60
2022/12/21 09:19:55;;;;;;;27.75;3.08;;;9.30;99.90;;;;;;5120877;27;20434;-60
2022/12/21 09:22:23;;;;;;;13.38;1.88;;;9.20;99.90;;;;;;5128757;27;20086;-61
2022/12/21 09:24:50;;;;;;;21.30;2.35;;;9.20;99.90;;;;;;5099107;28;20109;-60
2022/12/21 09:27:17;;;;;;;18.27;2.55;;;9.20;99.90;;;;;;5127197;27;20155;-61
2022/12/21 09:29:44;;;;;;;12.80;1.92;;;9.20;99.90;;;;;;5124012;27;20055;-60
2022/12/21 09:32:11;;;;;;;11.35;2.17;;;9.30;99.90;;;;;;5111672;27;20055;-61
2022/12/21 09:34:39;;;;;;;16.60;2.42;;;9.30;99.90;;;;;;5111618;27;20043;-60
2022/12/21 09:37:05;;;;;;;12.48;2.42;;;9.30;99.90;;;;;;5122761;27;20074;-61
2022/12/21 09:39:50;;;;;;;12.80;2.25;;;9.40;99.90;;;;;;5108457;27;20043;-61
2022/12/21 09:42:22;;;;;;;11.82;2.80;;;9.40;99.90;;;;;;5095997;28;20374;-62
2022/12/21 09:44:58;;;;;;;13.98;2.17;;;9.40;99.90;;;;;;5090484;28;20418;-61
2022/12/21 09:47:38;;;;;;;16.10;4.07;;;9.40;99.90;;;;;;5108038;28;20177;-61
2022/12/21 09:50:10;;;;;;;14.93;3.13;;;9.50;99.90;;;;;;5096561;27;20051;-62
2022/12/21 09:52:41;;;;;;;13.52;2.17;;;9.50;99.90;;;;;;5076224;28;20563;-61
2022/12/21 09:55:19;;;;;;;9.65;2.40;;;9.50;99.90;;;;;;5066928;28;20403;-60
2022/12/21 09:57:54;;;;;;;16.33;2.30;;;9.60;99.90;;;;;;5106337;27;20138;-61
2022/12/21 10:00:23;;;;;;;11.40;2.00;;;9.60;99.90;;;;;;5075109;28;20044;-61
2022/12/21 10:03:04;;;;;;;11.27;1.67;;;9.60;99.90;;;;;;5062731;28;20456;-62
2022/12/21 10:05:49;;;;;;;11.07;2.20;;;9.70;99.90;;;;;;5100464;27;20052;-61
2022/12/21 10:08:39;;;;;;;9.48;2.00;;;9.70;99.90;;;;;;5118749;27;20057;-61
2022/12/21 10:11:25;;;;;;;9.95;2.50;;;9.80;99.90;;;;;;5088785;27;20564;-59
2022/12/21 10:14:00;;;;;;;9.15;1.30;;;9.80;99.90;;;;;;5108731;27;20079;-60
2022/12/21 10:16:46;;;;;;;9.85;1.50;;;9.80;99.90;;;;;;5094072;28;20126;-61
2022/12/21 10:19:36;;;;;;;8.10;1.90;;;9.80;99.90;;;;;;5092350;28;20070;-62
2022/12/21 10:22:14;;;;;;;10.98;1.85;;;9.90;99.90;;;;;;5107407;27;20079;-60
2022/12/21 10:24:56;;;;;;;12.13;1.92;;;9.90;99.90;;;;;;5086557;28;20052;-60
2022/12/21 10:27:29;;;;;;;15.15;2.05;;;9.90;99.90;;;;;;5097492;27;20498;-60
2022/12/21 10:29:57;;;;;;;9.65;2.22;;;9.90;99.90;;;;;;5127210;27;20132;-61
2022/12/21 10:32:32;;;;;;;11.07;1.63;;;9.90;99.90;;;;;;5121814;27;20075;-62
2022/12/21 10:35:20;;;;;;;9.32;1.52;;;9.90;99.90;;;;;;5073974;28;20044;-61
2022/12/21 10:37:49;;;;;;;11.13;1.80;;;9.90;99.90;;;;;;5114597;27;20133;-61
2022/12/21 10:40:16;;;;;;;18.08;2.35;;;9.90;99.90;;;;;;5093403;27;20047;-61
2022/12/21 10:42:44;;;;;;;15.68;2.00;;;9.90;99.90;;;;;;5085182;27;20387;-61
2022/12/21 10:45:15;;;;;;;12.85;2.20;;;10.00;99.90;;;;;;5071767;28;20136;-63
2022/12/21 10:47:51;;;;;;;13.88;2.97;;;10.00;99.90;;;;;;5094940;27;20044;-61
2022/12/21 10:50:27;;;;;;;11.25;2.13;;;10.10;99.90;;;;;;5128547;27;20100;-61
2022/12/21 10:52:55;;;;;;;14.25;1.83;;;10.10;99.90;;;;;;5106524;27;20576;-61
2022/12/21 10:55:24;;;;;;;9.90;1.75;;;10.20;99.90;;;;;;5069599;28;20101;-61
2022/12/21 10:58:16;;;;;;;13.05;2.30;;;10.20;99.90;;;;;;5088692;28;20055;-60
2022/12/21 11:01:11;;;;;;;16.33;2.47;;;10.20;99.90;;;;;;5057129;28;20052;-60
2022/12/21 11:03:39;;;;;;;15.02;2.33;;;10.30;99.90;;;;;;5102798;27;20096;-61
2022/12/21 11:06:16;;;;;;;11.40;1.73;;;10.30;99.90;;;;;;5096714;27;20055;-60
2022/12/21 11:08:45;;;;;;;12.65;2.25;;;10.40;99.90;;;;;;5105676;27;20070;-61
2022/12/21 11:11:29;;;;;;;8.25;2.10;;;10.40;99.90;;;;;;5091827;28;20059;-61
2022/12/21 11:13:57;;;;;;;;;;;10.40;99.90;;;;;;5099133;27;20494;-61
2022/12/21 11:16:33;;;;;;;17.08;2.53;;;10.40;99.90;;;;;;5130985;27;19935;-59
2022/12/21 11:19:01;;;;;;;13.88;3.63;;;10.50;99.90;;;;;;5124610;27;20053;-59
2022/12/21 11:21:30;;;;;;;16.58;3.40;;;10.50;99.90;;;;;;5091836;28;20051;-59
2022/12/21 11:24:20;;;;;;;13.93;2.20;;;10.60;99.90;;;;;;5114379;27;20402;-60
2022/12/21 11:26:55;;;;;;;18.25;1.92;;;10.60;99.90;;;;;;5081398;28;20113;-62
2022/12/21 11:29:30;;;;;;;27.92;6.90;;;10.70;99.90;;;;;;5095664;27;20083;-60
2022/12/21 11:32:08;;;;;;;11.48;1.98;;;10.70;99.90;;;;;;5095846;27;20260;-60
2022/12/21 11:34:42;;;;;;;14.07;2.97;;;10.70;99.90;;;;;;5105896;27;20043;-61
2022/12/21 11:37:26;;;;;;;18.58;1.95;;;10.70;99.90;;;;;;5092565;28;20100;-61
2022/12/21 11:39:55;;;;;;;12.63;3.05;;;10.70;99.90;;;;;;5116825;27;20043;-61
2022/12/21 11:42:23;;;;;;;13.63;2.28;;;10.70;99.90;;;;;;5111828;27;20049;-61
2022/12/21 11:44:51;;;;;;;13.35;2.42;;;10.70;99.90;;;;;;5124284;27;20522;-60
2022/12/21 11:47:34;;;;;;;19.42;2.47;;;10.70;99.90;;;;;;5091595;28;20126;-61
2022/12/21 11:50:20;;;;;;;10.50;2.08;;;10.80;99.90;;;;;;5078185;27;20044;-61
2022/12/21 11:52:53;;;;;;;9.90;3.05;;;10.80;99.90;;;;;;5112652;27;20043;-61
2022/12/21 11:55:33;;;;;;;7.85;1.65;;;10.80;99.90;;;;;;5104768;27;20096;-61
2022/12/21 11:58:24;;;;;;;6.40;2.15;;;10.80;99.90;;;;;;5109417;28;20090;-60
2022/12/21 12:00:57;;;;;;;6.00;1.70;;;10.80;99.90;;;;;;5117307;27;20075;-61
2022/12/21 12:03:42;;;;;;;10.55;2.15;;;10.90;99.90;;;;;;5092373;28;20047;-61
2022/12/21 12:06:18;;;;;;;5.72;2.03;;;10.90;99.90;;;;;;5064942;28;20109;-60
2022/12/21 12:09:16;;;;;;;5.70;1.75;;;10.90;99.90;;;;;;5090419;28;20090;-60
2022/12/21 12:12:11;;;;;;;6.00;0.93;;;10.90;99.90;;;;;;5108553;27;20049;-60
2022/12/21 12:14:47;;;;;;;2.67;0.82;;;10.90;99.90;;;;;;5122935;27;20044;-61
2022/12/21 12:17:27;;;;;;;1.30;0.70;;;10.80;99.90;;;;;;5101356;27;20039;-61
2022/12/21 12:20:04;;;;;;;4.20;0.90;;;10.80;99.90;;;;;;5078993;27;20831;-61
2022/12/21 12:22:37;;;;;;;4.07;1.45;;;10.80;99.90;;;;;;5123275;28;20043;-61
2022/12/21 12:25:25;;;;;;;5.53;0.83;;;10.80;99.90;;;;;;4768481;28;9999712;-60
2022/12/21 12:27:59;;;;;;;3.80;0.70;;;10.80;99.90;;;;;;5124037;28;20050;-61
2022/12/21 12:30:43;;;;;;;1.02;0.47;;;10.80;99.90;;;;;;5125279;28;20070;-61
2022/12/21 12:33:46;;;;;;;4.05;1.00;;;10.80;99.90;;;;;;5097471;28;20048;-61
2022/12/21 12:36:19;;;;;;;6.35;0.77;;;10.80;99.90;;;;;;5091777;28;20058;-61
2022/12/21 12:38:49;;;;;;;8.07;1.35;;;10.70;99.90;;;;;;5129555;28;20058;-62
2022/12/21 12:41:29;;;;;;;4.10;0.70;;;10.70;99.90;;;;;;5126630;27;20161;-60
2022/12/21 12:44:03;;;;;;;1.60;0.60;;;10.60;99.90;;;;;;5096766;28;20545;-61
2022/12/21 12:46:42;;;;;;;5.00;0.70;;;10.60;99.90;;;;;;5078647;28;20382;-60
2022/12/21 12:49:50;;;;;;;2.50;0.52;;;10.60;99.90;;;;;;5093239;28;20070;-61
2022/12/21 12:52:52;;;;;;;4.28;1.67;;;10.60;99.90;;;;;;5102079;27;20046;-59
2022/12/21 12:55:24;;;;;;;4.90;0.80;;;10.60;99.90;;;;;;5132505;27;20047;-61
2022/12/21 12:58:04;;;;;;;5.35;1.10;;;10.50;99.90;;;;;;5123916;27;20138;-61
2022/12/21 13:00:49;;;;;;;5.00;1.05;;;10.50;99.90;;;;;;5113636;27;20566;-61
2022/12/21 13:03:44;;;;;;;9.02;1.25;;;10.40;99.90;;;;;;5106458;27;20047;-60
2022/12/21 13:06:20;;;;;;;2.85;0.82;;;10.30;99.90;;;;;;5124138;27;20097;-60
2022/12/21 13:09:03;;;;;;;2.17;0.60;;;10.20;99.90;;;;;;5121785;27;20146;-60
2022/12/21 13:11:42;;;;;;;4.13;0.93;;;10.10;99.90;;;;;;5099112;27;20039;-61
2022/12/21 13:14:22;;;;;;;3.15;1.00;;;10.00;99.90;;;;;;5107373;27;20047;-60
2022/12/21 13:17:04;;;;;;;5.47;1.40;;;10.00;99.90;;;;;;5111966;27;20043;-61
2022/12/21 13:19:31;;;;;;;3.75;1.48;;;10.00;99.90;;;;;;5098860;28;20105;-61
2022/12/21 13:22:00;;;;;;;4.28;0.90;;;9.90;99.90;;;;;;5082543;27;20500;-60
2022/12/21 13:24:38;;;;;;;3.42;1.08;;;9.90;99.90;;;;;;5095595;28;20048;-63
2022/12/21 13:27:07;;;;;;;6.90;1.10;;;10.00;99.90;;;;;;5073358;27;20168;-62
2022/12/21 13:29:35;;;;;;;5.07;0.93;;;10.00;99.90;;;;;;5106815;27;20047;-61